createdAt,value
2018-11-29T00:00:36.227Z,29.37
2018-11-29T00:03:06.675Z,28.87
2018-11-29T00:05:35.888Z,25.20
2018-11-29T00:08:05.119Z,28.47
2018-11-29T00:10:34.608Z,28.50
2018-11-29T00:13:04.323Z,31.70
2018-11-29T00:15:33.717Z,29.47
2018-11-29T00:18:02.992Z,24.33
2018-11-29T00:20:32.891Z,25.50
2018-11-29T00:23:02.156Z,26.50
2018-11-29T00:25:31.303Z,25.30
2018-11-29T00:28:00.459Z,28.93
2018-11-29T00:30:29.645Z,31.27
2018-11-29T00:32:58.802Z,30.30
2018-11-29T00:35:27.979Z,27.70
2018-11-29T00:37:57.150Z,29.90
2018-11-29T00:40:26.359Z,27.47
2018-11-29T00:42:55.525Z,28.53
2018-11-29T00:45:24.974Z,27.70
2018-11-29T00:47:54.174Z,29.10
2018-11-29T00:50:23.337Z,29.93
2018-11-29T00:52:52.734Z,29.50
2018-11-29T00:55:23.314Z,28.53
2018-11-29T00:57:53.097Z,27.23
2018-11-29T01:03:19.487Z,27.23
2018-11-29T01:05:48.659Z,27.50
2018-11-29T01:08:17.848Z,28.20
2018-11-29T01:10:47.051Z,28.50
2018-11-29T01:13:16.191Z,27.30
2018-11-29T01:15:45.339Z,26.17
2018-11-29T01:18:14.514Z,28.10
2018-11-29T01:20:43.672Z,32.03
2018-11-29T01:23:12.859Z,29.63
2018-11-29T01:25:42.019Z,27.50
2018-11-29T01:28:11.232Z,27.23
2018-11-29T01:30:40.440Z,29.00
2018-11-29T01:33:09.676Z,28.50
2018-11-29T01:35:38.830Z,28.50
2018-11-29T01:38:08.055Z,27.43
2018-11-29T01:40:37.266Z,28.93
2018-11-29T01:43:06.748Z,25.00
2018-11-29T01:45:35.912Z,27.70
2018-11-29T01:48:05.109Z,23.87
2018-11-29T01:50:34.313Z,25.57
2018-11-29T01:53:03.496Z,27.40
2018-11-29T01:55:32.688Z,23.43
2018-11-29T01:58:01.935Z,21.53
2018-11-29T02:00:31.155Z,23.50
2018-11-29T02:03:00.301Z,25.03
2018-11-29T02:05:29.508Z,26.87
2018-11-29T02:07:58.723Z,28.07
2018-11-29T02:10:32.020Z,23.70
2018-11-29T02:13:01.212Z,29.80
2018-11-29T02:15:30.367Z,24.77
2018-11-29T02:17:59.578Z,27.33
2018-11-29T02:20:28.749Z,27.37
2018-11-29T02:22:57.927Z,26.03
2018-11-29T02:25:27.106Z,25.63
2018-11-29T02:27:56.268Z,23.17
2018-11-29T02:30:25.567Z,27.70
2018-11-29T02:32:54.728Z,25.23
2018-11-29T02:35:23.893Z,24.50
2018-11-29T02:37:53.080Z,28.20
2018-11-29T02:40:22.323Z,27.60
2018-11-29T02:42:51.677Z,24.80
2018-11-29T02:45:23.647Z,26.23
2018-11-29T02:47:52.828Z,22.93
2018-11-29T02:50:21.989Z,25.73
2018-11-29T02:52:51.210Z,25.47
2018-11-29T02:55:20.387Z,24.53
2018-11-29T02:57:49.558Z,25.50
2018-11-29T03:00:19.747Z,26.43
2018-11-29T03:02:48.912Z,24.43
2018-11-29T03:05:18.596Z,26.53
2018-11-29T03:07:47.821Z,27.60
2018-11-29T03:10:22.483Z,28.00
2018-11-29T03:12:51.661Z,26.70
2018-11-29T03:15:21.015Z,26.87
2018-11-29T03:17:50.201Z,21.90
2018-11-29T03:20:19.357Z,28.03
2018-11-29T03:22:48.535Z,24.23
2018-11-29T03:25:17.856Z,27.30
2018-11-29T03:27:47.055Z,26.57
2018-11-29T03:30:17.789Z,30.00
2018-11-29T03:32:47.054Z,26.40
2018-11-29T03:35:16.323Z,28.50
2018-11-29T03:37:45.580Z,24.20
2018-11-29T03:40:16.550Z,29.13
2018-11-29T03:42:46.278Z,28.13
2018-11-29T03:45:16.427Z,25.57
2018-11-29T03:47:46.199Z,27.83
2018-11-29T03:50:17.689Z,26.40
2018-11-29T03:52:47.388Z,27.13
2018-11-29T03:55:16.569Z,27.00
2018-11-29T03:57:45.723Z,27.40
2018-11-29T04:03:24.975Z,31.30
2018-11-29T04:05:54.163Z,27.70
2018-11-29T04:08:23.309Z,27.27
2018-11-29T04:10:52.499Z,25.00
2018-11-29T04:13:21.651Z,26.97
2018-11-29T04:15:50.814Z,28.63
2018-11-29T04:18:20.352Z,28.30
2018-11-29T04:20:49.524Z,28.17
2018-11-29T04:23:18.684Z,26.33
2018-11-29T04:25:47.876Z,27.60
2018-11-29T04:28:17.139Z,26.67
2018-11-29T04:30:46.336Z,28.50
2018-11-29T04:33:15.575Z,25.33
2018-11-29T04:35:44.724Z,27.83
2018-11-29T04:38:13.884Z,23.27
2018-11-29T04:40:43.098Z,29.40
2018-11-29T04:43:12.255Z,30.73
2018-11-29T04:46:47.475Z,31.17
2018-11-29T04:49:16.639Z,28.70
2018-11-29T04:51:45.810Z,25.80
2018-11-29T04:54:15.012Z,26.50
2018-11-29T04:56:44.169Z,31.93
2018-11-29T04:59:13.316Z,26.93
2018-11-29T05:01:42.575Z,27.17
2018-11-29T05:04:11.753Z,28.23
2018-11-29T05:06:40.932Z,31.60
2018-11-29T05:09:10.844Z,29.57
2018-11-29T05:11:40.016Z,27.47
2018-11-29T05:14:10.970Z,28.87
2018-11-29T05:16:40.145Z,31.10
2018-11-29T05:19:09.336Z,24.00
2018-11-29T05:21:38.557Z,29.97
2018-11-29T05:24:07.907Z,29.03
2018-11-29T05:26:37.055Z,30.23
2018-11-29T05:29:06.387Z,28.00
2018-11-29T05:31:35.587Z,26.30
2018-11-29T05:34:04.793Z,28.17
2018-11-29T05:36:33.932Z,27.77
2018-11-29T05:39:03.978Z,29.43
2018-11-29T05:41:33.119Z,30.43
2018-11-29T05:44:02.288Z,31.87
2018-11-29T05:46:31.467Z,30.53
2018-11-29T05:49:00.646Z,30.50
2018-11-29T05:51:29.840Z,30.70
2018-11-29T05:53:59.037Z,30.73
2018-11-29T05:56:28.202Z,22.83
2018-11-29T05:58:57.387Z,29.10
2018-11-29T06:01:35.043Z,29.57
2018-11-29T06:04:04.246Z,29.30
2018-11-29T06:06:33.403Z,28.77
2018-11-29T06:09:02.591Z,28.30
2018-11-29T06:11:31.764Z,30.73
2018-11-29T06:14:00.938Z,30.43
2018-11-29T06:16:30.119Z,28.70
2018-11-29T06:18:59.271Z,30.10
2018-11-29T06:24:38.900Z,29.07
2018-11-29T06:27:08.075Z,23.40
2018-11-29T06:29:37.288Z,29.63
2018-11-29T06:32:07.003Z,31.57
2018-11-29T06:34:36.168Z,30.53
2018-11-29T06:37:05.447Z,27.87
2018-11-29T06:39:34.765Z,18.13
2018-11-29T06:42:03.864Z,31.03
2018-11-29T06:44:33.020Z,21.30
2018-11-29T06:47:02.226Z,23.40
2018-11-29T06:49:31.395Z,18.43
2018-11-29T06:52:00.546Z,24.97
2018-11-29T06:54:29.731Z,24.43
2018-11-29T06:56:58.897Z,30.77
2018-11-29T06:59:28.060Z,25.00
2018-11-29T07:01:57.242Z,24.63
2018-11-29T07:04:26.407Z,21.97
2018-11-29T07:06:55.568Z,22.77
2018-11-29T07:09:24.772Z,27.67
2018-11-29T07:11:53.998Z,27.60
2018-11-29T07:14:23.163Z,21.37
2018-11-29T07:16:52.342Z,31.43
2018-11-29T07:19:21.519Z,23.30
2018-11-29T07:21:54.507Z,24.97
2018-11-29T07:24:24.761Z,27.23
2018-11-29T07:29:59.595Z,25.27
2018-11-29T07:32:29.171Z,30.23
2018-11-29T07:34:58.339Z,32.57
2018-11-29T07:37:27.565Z,30.53
2018-11-29T07:39:56.744Z,25.87
2018-11-29T07:42:25.921Z,27.00
2018-11-29T07:44:55.142Z,25.07
2018-11-29T07:47:24.334Z,29.23
2018-11-29T07:50:03.080Z,28.33
2018-11-29T07:52:32.237Z,29.30
2018-11-29T07:55:01.472Z,28.27
2018-11-29T07:57:30.735Z,26.53
2018-11-29T07:59:59.872Z,25.30
2018-11-29T08:02:29.109Z,31.77
2018-11-29T08:04:58.329Z,29.57
2018-11-29T08:07:27.504Z,27.97
2018-11-29T08:09:56.719Z,28.50
2018-11-29T08:12:25.880Z,26.47
2018-11-29T08:14:55.028Z,27.93
2018-11-29T08:17:24.207Z,24.57
2018-11-29T08:19:53.423Z,27.30
2018-11-29T08:22:22.583Z,25.43
2018-11-29T08:24:52.261Z,26.83
2018-11-29T08:27:21.414Z,31.13
2018-11-29T08:29:50.621Z,26.73
2018-11-29T08:32:19.803Z,27.60
2018-11-29T08:34:48.989Z,26.77
2018-11-29T08:37:18.179Z,33.17
2018-11-29T08:39:47.355Z,27.13
2018-11-29T08:42:16.553Z,27.50
2018-11-29T08:44:46.324Z,23.93
2018-11-29T08:47:15.516Z,29.83
2018-11-29T08:49:44.714Z,24.67
2018-11-29T08:52:13.911Z,28.20
2018-11-29T08:54:43.169Z,24.27
2018-11-29T08:57:12.335Z,30.30
2018-11-29T08:59:41.531Z,29.93
2018-11-29T09:02:10.703Z,23.80
2018-11-29T09:04:39.915Z,24.47
2018-11-29T09:07:09.156Z,26.17
2018-11-29T09:09:38.311Z,26.87
2018-11-29T09:12:07.471Z,26.83
2018-11-29T09:14:36.668Z,26.27
2018-11-29T09:17:05.861Z,29.60
2018-11-29T09:19:37.481Z,29.10
2018-11-29T09:22:04.264Z,28.97
2018-11-29T09:24:33.428Z,27.97
2018-11-29T09:27:02.649Z,28.30
2018-11-29T09:29:31.819Z,26.00
2018-11-29T09:32:01.023Z,25.90
2018-11-29T09:34:30.189Z,24.17
2018-11-29T09:36:59.331Z,24.20
2018-11-29T09:39:28.511Z,27.40
2018-11-29T09:41:57.680Z,23.47
2018-11-29T09:44:26.831Z,24.63
2018-11-29T09:46:56.179Z,25.50
2018-11-29T09:49:25.341Z,21.77
2018-11-29T09:51:54.501Z,22.63
2018-11-29T09:54:23.700Z,28.57
2018-11-29T09:56:52.844Z,26.53
2018-11-29T09:59:22.100Z,24.03
2018-11-29T10:01:51.295Z,26.03
2018-11-29T10:04:20.543Z,23.20
2018-11-29T10:06:49.696Z,24.37
2018-11-29T10:12:22.340Z,20.40
2018-11-29T10:14:51.511Z,25.10
2018-11-29T10:17:20.682Z,24.13
2018-11-29T10:19:49.876Z,22.10
2018-11-29T10:22:19.039Z,22.33
2018-11-29T10:24:48.183Z,20.67
2018-11-29T10:33:16.490Z,23.67
2018-11-29T10:35:45.696Z,24.77
2018-11-29T10:38:14.888Z,19.60
2018-11-29T10:40:44.060Z,21.90
2018-11-29T10:43:13.283Z,24.50
2018-11-29T10:45:42.496Z,23.97
2018-11-29T10:48:14.232Z,22.13
2018-11-29T10:50:43.464Z,22.27
2018-11-29T10:53:12.640Z,21.60
2018-11-29T10:55:41.865Z,23.53
2018-11-29T10:58:11.070Z,23.10
2018-11-29T11:00:45.848Z,19.40
2018-11-29T11:03:20.416Z,23.33
2018-11-29T11:05:52.226Z,23.67
2018-11-29T11:08:21.996Z,23.63
2018-11-29T11:10:51.325Z,24.17
2018-11-29T11:13:20.491Z,24.13
2018-11-29T11:15:49.685Z,24.57
2018-11-29T11:18:19.144Z,24.77
2018-11-29T11:20:48.382Z,22.87
2018-11-29T11:23:17.544Z,24.53
2018-11-29T11:25:46.724Z,21.93
2018-11-29T11:28:15.908Z,23.20
2018-11-29T11:30:45.523Z,24.97
2018-11-29T11:33:14.718Z,24.10
2018-11-29T11:35:43.931Z,25.77
2018-11-29T11:38:13.120Z,25.07
2018-11-29T11:40:42.264Z,27.17
2018-11-29T11:43:11.434Z,23.70
2018-11-29T11:45:40.661Z,22.47
2018-11-29T11:48:09.815Z,18.30
2018-11-29T11:50:39.032Z,26.10
2018-11-29T11:53:09.409Z,23.47
2018-11-29T11:55:38.887Z,19.27
2018-11-29T11:58:09.181Z,21.97
2018-11-29T12:00:39.430Z,22.63
2018-11-29T12:03:16.391Z,19.63
2018-11-29T12:05:45.608Z,27.70
2018-11-29T12:08:14.784Z,21.13
2018-11-29T12:10:44.620Z,20.40
2018-11-29T12:13:13.788Z,19.23
2018-11-29T12:15:43.155Z,19.53
2018-11-29T12:18:13.443Z,19.67
2018-11-29T12:20:42.683Z,19.37
2018-11-29T12:23:11.851Z,20.57
2018-11-29T12:25:41.009Z,22.50
2018-11-29T12:28:10.201Z,16.23
2018-11-29T12:30:45.103Z,25.90
2018-11-29T12:33:14.302Z,23.00
2018-11-29T12:35:43.488Z,29.30
2018-11-29T12:38:12.664Z,24.83
2018-11-29T12:40:41.872Z,21.93
2018-11-29T12:43:11.074Z,25.97
2018-11-29T12:45:40.237Z,28.50
2018-11-29T12:48:09.404Z,27.50
2018-11-29T12:50:39.871Z,23.57
2018-11-29T12:53:09.395Z,27.60
2018-11-29T12:55:42.125Z,22.83
2018-11-29T12:58:11.274Z,21.13
2018-11-29T13:00:40.472Z,27.40
2018-11-29T13:03:10.092Z,27.13
2018-11-29T13:05:39.376Z,30.07
2018-11-29T13:08:09.498Z,25.67
2018-11-29T13:10:38.718Z,27.73
2018-11-29T13:13:08.232Z,24.47
2018-11-29T13:15:37.425Z,25.47
2018-11-29T13:18:08.704Z,26.60
2018-11-29T13:20:37.941Z,31.13
2018-11-29T13:23:07.457Z,28.17
2018-11-29T13:25:37.026Z,25.17
2018-11-29T13:28:07.102Z,23.20
2018-11-29T13:30:37.783Z,28.90
2018-11-29T13:33:09.272Z,24.17
2018-11-29T13:35:38.543Z,26.00
2018-11-29T13:38:13.584Z,24.23
2018-11-29T13:40:47.779Z,26.23
2018-11-29T13:43:16.980Z,28.40
2018-11-29T13:45:48.293Z,24.50
2018-11-29T13:48:17.488Z,22.77
2018-11-29T13:50:46.637Z,26.73
2018-11-29T13:53:15.908Z,27.60
2018-11-29T13:55:45.063Z,27.90
2018-11-29T13:58:14.232Z,27.97
2018-11-29T14:00:43.407Z,24.70
2018-11-29T14:03:16.259Z,27.07
2018-11-29T14:05:45.415Z,26.80
2018-11-29T14:08:14.605Z,25.43
2018-11-29T14:10:44.344Z,25.17
2018-11-29T14:13:13.507Z,26.70
2018-11-29T14:15:42.681Z,24.93
2018-11-29T14:18:11.873Z,20.70
2018-11-29T14:20:41.007Z,26.27
2018-11-29T14:23:10.199Z,25.07
2018-11-29T14:25:39.360Z,26.50
2018-11-29T14:28:09.011Z,22.57
2018-11-29T14:30:38.163Z,26.43
2018-11-29T14:33:08.054Z,24.27
2018-11-29T14:35:37.220Z,26.73
2018-11-29T14:38:06.495Z,24.20
2018-11-29T14:40:37.077Z,24.00
2018-11-29T14:43:07.605Z,23.37
2018-11-29T14:45:36.833Z,25.03
2018-11-29T14:48:06.089Z,20.83
2018-11-29T14:50:39.249Z,22.27
2018-11-29T14:53:09.626Z,22.80
2018-11-29T14:55:39.653Z,20.57
2018-11-29T14:58:12.748Z,22.90
2018-11-29T15:00:42.148Z,24.50
2018-11-29T15:03:16.378Z,23.77
2018-11-29T15:05:46.252Z,20.97
2018-11-29T15:08:15.460Z,21.80
2018-11-29T15:10:44.689Z,22.43
2018-11-29T15:13:14.173Z,23.97
2018-11-29T15:15:44.171Z,20.20
2018-11-29T15:18:13.370Z,19.87
2018-11-29T15:20:46.735Z,26.37
2018-11-29T15:23:17.971Z,20.80
2018-11-29T15:25:47.174Z,24.90
2018-11-29T15:28:16.383Z,23.77
2018-11-29T15:30:45.592Z,21.90
2018-11-29T15:33:14.786Z,24.90
2018-11-29T15:35:43.965Z,24.50
2018-11-29T15:38:13.160Z,21.93
2018-11-29T15:40:42.459Z,24.13
2018-11-29T15:43:11.650Z,24.83
2018-11-29T15:45:40.849Z,25.27
2018-11-29T15:48:10.068Z,20.70
2018-11-29T15:50:39.361Z,23.80
2018-11-29T15:53:08.592Z,23.20
2018-11-29T15:55:37.901Z,22.73
2018-11-29T15:58:07.242Z,24.30
2018-11-29T16:00:36.459Z,25.50
2018-11-29T16:03:10.013Z,26.03
2018-11-29T16:05:41.252Z,27.10
2018-11-29T16:08:08.722Z,21.37
2018-11-29T16:10:37.915Z,27.17
2018-11-29T16:13:08.334Z,29.50
2018-11-29T16:15:38.370Z,27.97
2018-11-29T16:18:07.688Z,25.90
2018-11-29T16:20:38.806Z,23.30
2018-11-29T16:23:09.515Z,22.60
2018-11-29T16:25:38.845Z,24.33
2018-11-29T16:28:09.456Z,25.57
2018-11-29T16:31:02.305Z,24.20
2018-11-29T16:33:35.052Z,21.97
2018-11-29T16:36:04.582Z,26.37
2018-11-29T16:38:33.784Z,25.40
2018-11-29T16:41:03.361Z,26.13
2018-11-29T16:43:32.614Z,25.07
2018-11-29T16:46:01.805Z,24.43
2018-11-29T16:48:31.024Z,22.90
2018-11-29T16:51:00.285Z,26.47
2018-11-29T16:53:29.497Z,26.30
2018-11-29T16:55:58.747Z,25.43
2018-11-29T16:58:30.532Z,23.60
2018-11-29T17:00:59.738Z,18.47
2018-11-29T17:03:29.369Z,25.23
2018-11-29T17:05:58.577Z,23.00
2018-11-29T17:08:27.852Z,23.93
2018-11-29T17:10:57.073Z,24.20
2018-11-29T17:13:26.392Z,23.43
2018-11-29T17:15:55.645Z,21.67
2018-11-29T17:18:24.917Z,23.60
2018-11-29T17:20:54.128Z,18.00
2018-11-29T17:23:23.341Z,24.63
2018-11-29T17:25:52.642Z,20.27
2018-11-29T17:28:21.976Z,22.50
2018-11-29T17:30:51.160Z,20.83
2018-11-29T17:33:20.393Z,24.07
2018-11-29T17:35:49.659Z,21.60
2018-11-29T17:38:18.905Z,20.70
2018-11-29T17:40:48.161Z,22.80
2018-11-29T17:43:17.468Z,21.33
2018-11-29T17:45:46.721Z,20.70
2018-11-29T17:48:15.966Z,20.60
2018-11-29T17:50:45.777Z,18.70
2018-11-29T17:53:14.977Z,19.97
2018-11-29T17:55:44.324Z,21.40
2018-11-29T17:58:16.023Z,20.67
2018-11-29T18:00:49.697Z,20.37
2018-11-29T18:03:22.543Z,20.63
2018-11-29T18:05:52.141Z,19.00
2018-11-29T18:08:21.366Z,19.93
2018-11-29T18:10:55.360Z,19.63
2018-11-29T18:13:28.353Z,18.60
2018-11-29T18:15:57.707Z,18.50
2018-11-29T18:18:26.950Z,18.00
2018-11-29T18:20:56.189Z,19.50
2018-11-29T18:23:25.465Z,20.93
2018-11-29T18:25:54.765Z,19.30
2018-11-29T18:28:23.992Z,21.40
2018-11-29T18:30:53.468Z,21.67
2018-11-29T18:33:22.702Z,22.10
2018-11-29T18:35:51.958Z,19.70
2018-11-29T18:38:21.210Z,25.40
2018-11-29T18:40:50.429Z,26.83
2018-11-29T18:43:19.660Z,21.60
2018-11-29T18:45:48.933Z,25.00
2018-11-29T18:48:18.163Z,26.30
2018-11-29T18:50:47.551Z,26.73
2018-11-29T18:53:16.883Z,27.97
2018-11-29T18:55:46.694Z,31.10
2018-11-29T18:58:16.257Z,28.77
2018-11-29T19:00:45.488Z,33.57
2018-11-29T19:03:15.748Z,25.33
2018-11-29T19:05:45.027Z,35.70
2018-11-29T19:08:14.294Z,29.30
2018-11-29T19:10:43.679Z,29.23
2018-11-29T19:13:13.949Z,29.00
2018-11-29T19:15:43.168Z,35.80
2018-11-29T19:18:12.441Z,34.27
2018-11-29T19:20:42.224Z,35.13
2018-11-29T19:23:11.483Z,34.83
2018-11-29T19:25:40.765Z,32.97
2018-11-29T19:28:11.005Z,36.83
2018-11-29T19:30:40.241Z,41.67
2018-11-29T19:36:19.358Z,34.50
2018-11-29T19:38:48.611Z,33.73
2018-11-29T19:41:19.092Z,31.93
2018-11-29T19:43:49.326Z,37.50
2018-11-29T19:46:18.555Z,33.87
2018-11-29T19:48:47.774Z,32.50
2018-11-29T19:51:17.425Z,37.90
2018-11-29T19:53:46.651Z,33.07
2018-11-29T19:56:15.883Z,36.23
2018-11-29T19:58:45.180Z,37.00
2018-11-29T20:01:14.450Z,31.53
2018-11-29T20:03:43.852Z,35.20
2018-11-29T20:06:15.416Z,32.07
2018-11-29T20:08:44.978Z,32.90
2018-11-29T20:11:14.240Z,30.83
2018-11-29T20:13:43.588Z,32.03
2018-11-29T20:16:12.967Z,32.53
2018-11-29T20:18:42.288Z,29.43
2018-11-29T20:21:12.820Z,32.30
2018-11-29T20:23:42.311Z,33.57
2018-11-29T20:26:11.924Z,28.67
2018-11-29T20:28:41.226Z,28.93
2018-11-29T20:31:11.584Z,30.90
2018-11-29T20:33:41.243Z,27.80
2018-11-29T20:36:10.569Z,28.07
2018-11-29T20:38:39.913Z,31.50
2018-11-29T20:41:15.407Z,31.60
2018-11-29T20:43:44.763Z,23.50
2018-11-29T20:46:14.279Z,27.30
2018-11-29T20:48:44.191Z,28.00
2018-11-29T20:51:13.811Z,23.63
2018-11-29T20:53:43.262Z,26.53
2018-11-29T20:56:15.523Z,26.10
2018-11-29T20:58:44.867Z,27.37
2018-11-29T21:01:14.180Z,26.17
2018-11-29T21:03:44.574Z,26.53
2018-11-29T21:06:14.783Z,25.70
2018-11-29T21:08:44.089Z,26.00
2018-11-29T21:11:13.410Z,26.73
2018-11-29T21:13:42.714Z,25.37
2018-11-29T21:16:12.646Z,25.77
2018-11-29T21:18:41.901Z,24.73
2018-11-29T21:21:11.312Z,22.67
2018-11-29T21:23:40.579Z,18.63
2018-11-29T21:26:10.043Z,19.00
2018-11-29T21:28:39.407Z,21.10
2018-11-29T21:31:08.671Z,23.10
2018-11-29T21:33:38.122Z,24.03
2018-11-29T21:36:07.466Z,20.00
2018-11-29T21:38:36.825Z,22.87
2018-11-29T21:41:06.278Z,20.80
2018-11-29T21:43:35.501Z,20.47
2018-11-29T21:46:04.737Z,19.40
2018-11-29T21:48:34.051Z,22.10
2018-11-29T21:51:03.305Z,18.13
2018-11-29T21:53:32.517Z,18.77
2018-11-29T21:56:01.790Z,18.57
2018-11-29T21:58:31.060Z,22.17
2018-11-29T22:01:01.253Z,19.30
2018-11-29T22:03:30.697Z,21.00
2018-11-29T22:05:59.890Z,18.30
2018-11-29T22:08:29.190Z,18.60
2018-11-29T22:10:58.402Z,18.40
2018-11-29T22:13:27.594Z,20.67
2018-11-29T22:15:56.886Z,18.07
2018-11-29T22:18:26.465Z,20.07
2018-11-29T22:21:02.656Z,19.53
2018-11-29T22:23:33.767Z,20.07
2018-11-29T22:26:06.059Z,18.57
2018-11-29T22:28:35.253Z,17.27
2018-11-29T22:31:04.550Z,19.07
2018-11-29T22:33:33.825Z,17.00
2018-11-29T22:36:03.050Z,18.73
2018-11-29T22:38:32.275Z,15.87
2018-11-29T22:41:01.525Z,16.80
2018-11-29T22:43:30.980Z,17.53
2018-11-29T22:46:00.037Z,19.13
2018-11-29T22:48:29.261Z,17.10
2018-11-29T22:50:58.463Z,18.20
2018-11-29T22:53:27.670Z,13.67
2018-11-29T22:55:57.837Z,15.80
2018-11-29T22:58:27.081Z,17.73
2018-11-29T23:00:56.373Z,16.00
2018-11-29T23:03:25.578Z,16.47
2018-11-29T23:05:54.770Z,15.73
2018-11-29T23:08:24.042Z,16.87
2018-11-29T23:10:53.325Z,16.13
2018-11-29T23:13:22.560Z,14.10
2018-11-29T23:15:51.865Z,18.37
2018-11-29T23:18:21.108Z,16.30
2018-11-29T23:20:50.306Z,15.43
2018-11-29T23:23:19.537Z,15.53
2018-11-29T23:25:48.843Z,14.20
2018-11-29T23:28:18.060Z,13.00
2018-11-29T23:30:47.399Z,15.30
2018-11-29T23:33:16.643Z,13.43
2018-11-29T23:35:45.895Z,15.43
2018-11-29T23:38:15.696Z,13.40
2018-11-29T23:40:44.885Z,14.30
2018-11-29T23:43:14.106Z,14.03
2018-11-29T23:45:43.333Z,16.80
2018-11-29T23:48:12.534Z,14.30
2018-11-29T23:50:41.760Z,12.93
2018-11-29T23:53:11.032Z,13.43
2018-11-29T23:55:40.228Z,14.17
2018-11-29T23:58:09.433Z,10.80
